createdAt,value
2023-05-01T00:02:19.647Z,15.64
2023-05-01T00:04:47.215Z,15.63
2023-05-01T00:07:13.870Z,15.59
2023-05-01T00:09:40.637Z,15.61
2023-05-01T00:12:07.333Z,15.50
2023-05-01T00:14:33.936Z,15.53
2023-05-01T00:17:01.039Z,15.49
2023-05-01T00:19:27.721Z,15.48
2023-05-01T00:21:54.356Z,15.46
2023-05-01T00:24:20.966Z,15.47
2023-05-01T00:26:47.713Z,15.43
2023-05-01T00:29:14.550Z,15.40
2023-05-01T00:31:42.653Z,15.41
2023-05-01T00:34:11.443Z,15.38
2023-05-01T00:36:38.189Z,15.36
2023-05-01T00:39:08.203Z,15.33
2023-05-01T00:41:35.638Z,15.27
2023-05-01T00:44:02.509Z,15.31
2023-05-01T00:46:30.461Z,15.29
2023-05-01T00:48:58.541Z,15.40
2023-05-01T00:51:28.544Z,15.36
2023-05-01T00:53:56.345Z,15.41
2023-05-01T00:56:23.062Z,15.36
2023-05-01T00:58:53.508Z,15.43
2023-05-01T01:01:21.549Z,15.48
2023-05-01T01:03:48.577Z,15.48
2023-05-01T01:06:35.844Z,15.52
2023-05-01T01:09:31.767Z,15.55
2023-05-01T01:12:19.980Z,15.60
2023-05-01T01:15:01.838Z,15.66
2023-05-01T01:17:47.191Z,15.67
2023-05-01T01:20:38.082Z,15.68
2023-05-01T01:23:23.227Z,15.67
2023-05-01T01:26:07.115Z,15.74
2023-05-01T01:29:15.716Z,15.72
2023-05-01T01:31:57.961Z,15.79
2023-05-01T01:34:44.599Z,15.75
2023-05-01T01:37:22.978Z,15.81
2023-05-01T01:40:05.128Z,15.83
2023-05-01T01:42:40.644Z,15.82
2023-05-01T01:45:23.718Z,15.82
2023-05-01T01:47:52.917Z,15.82
2023-05-01T01:50:22.521Z,15.86
2023-05-01T01:52:52.018Z,15.82
2023-05-01T01:55:25.298Z,15.79
2023-05-01T01:57:52.792Z,15.82
2023-05-01T02:00:23.198Z,15.85
2023-05-01T02:02:52.387Z,15.89
2023-05-01T02:05:21.454Z,15.90
2023-05-01T02:07:50.249Z,15.90
2023-05-01T02:10:18.013Z,15.82
2023-05-01T02:12:46.708Z,15.90
2023-05-01T02:15:16.665Z,15.84
2023-05-01T02:17:43.426Z,15.82
2023-05-01T02:20:12.656Z,15.84
2023-05-01T02:22:45.977Z,15.79
2023-05-01T02:25:14.861Z,15.82
2023-05-01T02:27:52.998Z,15.81
2023-05-01T02:30:20.953Z,15.73
2023-05-01T02:32:47.752Z,15.67
2023-05-01T02:35:17.785Z,15.71
2023-05-01T02:37:45.602Z,15.69
2023-05-01T02:40:15.002Z,15.76
2023-05-01T02:42:44.642Z,15.80
2023-05-01T02:45:25.863Z,15.80
2023-05-01T02:47:57.816Z,15.83
2023-05-01T02:50:26.237Z,15.81
2023-05-01T02:52:53.967Z,15.87
2023-05-01T02:55:34.983Z,15.86
2023-05-01T02:58:02.925Z,15.87
2023-05-01T03:00:30.179Z,15.87
2023-05-01T03:02:56.974Z,15.91
2023-05-01T03:05:23.764Z,15.93
2023-05-01T03:07:51.114Z,16.03
2023-05-01T03:10:17.849Z,16.04
2023-05-01T03:12:44.622Z,16.01
2023-05-01T03:15:13.184Z,16.05
2023-05-01T03:17:39.982Z,15.94
2023-05-01T03:20:09.479Z,15.92
2023-05-01T03:22:36.703Z,15.94
2023-05-01T03:25:04.349Z,15.94
2023-05-01T03:27:32.199Z,15.97
2023-05-01T03:29:58.946Z,15.99
2023-05-01T03:32:26.066Z,16.01
2023-05-01T03:34:53.962Z,16.03
2023-05-01T03:37:21.309Z,16.00
2023-05-01T03:39:48.947Z,15.96
2023-05-01T03:42:54.162Z,16.02
2023-05-01T03:45:23.630Z,16.04
2023-05-01T03:47:50.316Z,16.04
2023-05-01T03:50:17.627Z,16.06
2023-05-01T03:52:46.640Z,16.03
2023-05-01T03:55:13.359Z,16.06
2023-05-01T03:57:47.081Z,16.05
2023-05-01T04:00:14.202Z,16.05
2023-05-01T04:02:45.045Z,16.05
2023-05-01T04:05:16.694Z,16.08
2023-05-01T04:07:48.436Z,15.98
2023-05-01T04:10:15.296Z,15.96
2023-05-01T04:12:48.923Z,16.02
2023-05-01T04:15:16.321Z,16.02
2023-05-01T04:17:44.362Z,16.01
2023-05-01T04:20:12.385Z,15.98
2023-05-01T04:22:39.379Z,16.03
2023-05-01T04:25:06.616Z,16.02
2023-05-01T04:27:33.488Z,16.02
2023-05-01T04:30:00.368Z,16.06
2023-05-01T04:32:28.815Z,16.01
2023-05-01T04:34:55.901Z,15.98
2023-05-01T04:37:22.664Z,16.00
2023-05-01T04:39:50.807Z,16.02
2023-05-01T04:42:18.556Z,16.03
2023-05-01T04:44:45.697Z,15.95
2023-05-01T04:47:13.681Z,15.99
2023-05-01T04:49:40.704Z,15.99
2023-05-01T04:52:07.822Z,16.05
2023-05-01T04:54:49.532Z,16.04
2023-05-01T04:57:16.342Z,16.15
2023-05-01T04:59:43.268Z,16.10
2023-05-01T05:02:11.079Z,16.13
2023-05-01T05:04:37.761Z,16.13
2023-05-01T05:07:04.725Z,16.07
2023-05-01T05:09:51.397Z,16.19
2023-05-01T05:12:18.146Z,16.19
2023-05-01T05:14:44.926Z,16.25
2023-05-01T05:17:12.643Z,16.24
2023-05-01T05:19:39.315Z,16.21
2023-05-01T05:22:06.066Z,16.34
2023-05-01T05:24:40.663Z,16.34
2023-05-01T05:27:08.373Z,16.44
2023-05-01T05:29:35.580Z,16.46
2023-05-01T05:32:02.507Z,16.49
2023-05-01T05:34:29.784Z,16.64
2023-05-01T05:36:56.429Z,16.66
2023-05-01T05:39:25.125Z,16.82
2023-05-01T05:41:53.728Z,16.88
2023-05-01T05:44:20.812Z,16.76
2023-05-01T05:46:47.646Z,16.73
2023-05-01T05:49:21.065Z,16.87
2023-05-01T05:51:47.740Z,16.95
2023-05-01T05:54:15.790Z,17.02
2023-05-01T05:56:43.269Z,17.15
2023-05-01T05:59:09.929Z,17.13
2023-05-01T06:01:37.791Z,17.31
2023-05-01T06:04:04.608Z,17.36
2023-05-01T06:06:34.187Z,17.47
2023-05-01T06:09:02.766Z,17.60
2023-05-01T06:11:29.798Z,17.57
2023-05-01T06:13:58.238Z,17.78
2023-05-01T06:16:25.516Z,17.95
2023-05-01T06:18:52.436Z,18.07
2023-05-01T06:21:19.288Z,18.01
2023-05-01T06:23:46.016Z,17.99
2023-05-01T06:26:23.807Z,17.98
2023-05-01T06:28:50.471Z,17.96
2023-05-01T06:31:17.489Z,18.07
2023-05-01T06:33:49.684Z,18.22
2023-05-01T06:36:23.806Z,18.43
2023-05-01T06:38:50.475Z,18.68
2023-05-01T06:41:17.299Z,18.70
2023-05-01T06:43:45.023Z,18.83
2023-05-01T06:46:12.466Z,19.22
2023-05-01T06:48:39.291Z,19.75
2023-05-01T06:51:06.055Z,20.07
2023-05-01T06:53:32.665Z,20.21
2023-05-01T06:55:59.371Z,20.23
2023-05-01T06:58:26.392Z,20.07
2023-05-01T07:00:54.042Z,20.01
2023-05-01T07:03:21.089Z,20.16
2023-05-01T07:05:47.872Z,20.20
2023-05-01T07:08:14.566Z,20.20
2023-05-01T07:10:42.323Z,20.24
2023-05-01T07:13:09.552Z,19.96
2023-05-01T07:15:36.245Z,19.82
2023-05-01T07:18:05.631Z,19.63
2023-05-01T07:20:32.690Z,19.59
2023-05-01T07:22:59.343Z,19.46
2023-05-01T07:25:26.063Z,19.37
2023-05-01T07:27:53.084Z,19.44
2023-05-01T07:30:20.390Z,19.57
2023-05-01T07:32:47.176Z,19.98
2023-05-01T07:35:13.862Z,20.00
2023-05-01T07:37:40.454Z,20.10
2023-05-01T07:40:07.785Z,20.66
2023-05-01T07:42:34.439Z,21.05
2023-05-01T07:45:01.084Z,21.74
2023-05-01T07:47:28.143Z,22.46
2023-05-01T07:49:57.709Z,22.86
2023-05-01T07:52:24.569Z,22.83
2023-05-01T07:54:51.316Z,22.84
2023-05-01T07:57:18.557Z,22.90
2023-05-01T07:59:45.267Z,23.40
2023-05-01T08:02:13.753Z,23.70
2023-05-01T08:04:41.608Z,23.97
2023-05-01T08:07:08.700Z,23.80
2023-05-01T08:09:35.684Z,24.04
2023-05-01T08:12:03.927Z,23.71
2023-05-01T08:14:30.906Z,23.76
2023-05-01T08:16:57.571Z,23.76
2023-05-01T08:19:24.371Z,24.05
2023-05-01T08:21:51.266Z,23.92
2023-05-01T08:24:17.980Z,23.86
2023-05-01T08:26:44.780Z,23.94
2023-05-01T08:29:11.461Z,23.98
2023-05-01T08:31:39.295Z,24.41
2023-05-01T08:34:06.279Z,24.32
2023-05-01T08:36:33.031Z,24.29
2023-05-01T08:38:59.653Z,24.40
2023-05-01T08:41:28.003Z,24.52
2023-05-01T08:43:58.472Z,24.33
2023-05-01T08:46:44.354Z,24.40
2023-05-01T08:49:14.873Z,24.34
2023-05-01T08:51:45.029Z,24.42
2023-05-01T08:54:13.693Z,24.34
2023-05-01T08:56:43.370Z,24.37
2023-05-01T08:59:11.891Z,24.33
2023-05-01T09:01:38.754Z,23.86
2023-05-01T09:04:07.329Z,24.20
2023-05-01T09:06:34.415Z,24.05
2023-05-01T09:09:01.323Z,24.63
2023-05-01T09:11:28.574Z,25.33
2023-05-01T09:13:55.682Z,25.93
2023-05-01T09:16:22.996Z,25.86
2023-05-01T09:18:50.308Z,26.00
2023-05-01T09:21:17.407Z,26.18
2023-05-01T09:23:44.146Z,26.45
2023-05-01T09:26:11.384Z,26.14
2023-05-01T09:28:51.992Z,26.61
2023-05-01T09:31:23.378Z,26.44
2023-05-01T09:33:58.229Z,27.02
2023-05-01T09:36:26.322Z,27.29
2023-05-01T09:38:53.012Z,27.65
2023-05-01T09:41:23.672Z,28.49
2023-05-01T09:43:54.882Z,28.61
2023-05-01T09:46:24.514Z,27.77
2023-05-01T09:49:01.582Z,26.97
2023-05-01T09:51:32.864Z,26.91
2023-05-01T09:54:02.145Z,26.05
2023-05-01T09:56:31.697Z,25.66
2023-05-01T09:59:14.959Z,25.95
2023-05-01T10:01:45.399Z,26.66
2023-05-01T10:04:15.560Z,26.79
2023-05-01T10:06:42.527Z,27.11
2023-05-01T10:09:17.602Z,26.81
2023-05-01T10:11:52.357Z,27.10
2023-05-01T10:14:20.420Z,27.37
2023-05-01T10:16:47.371Z,27.14
2023-05-01T10:19:16.774Z,27.76
2023-05-01T10:21:45.826Z,28.79
2023-05-01T10:24:12.606Z,29.45
2023-05-01T10:26:39.501Z,29.50
2023-05-01T10:29:06.249Z,29.34
2023-05-01T10:31:33.500Z,29.68
2023-05-01T10:34:03.767Z,30.19
2023-05-01T10:36:48.698Z,29.96
2023-05-01T10:39:32.448Z,30.34
2023-05-01T10:41:59.219Z,29.58
2023-05-01T10:44:27.025Z,30.41
2023-05-01T10:46:54.695Z,28.86
2023-05-01T10:49:21.601Z,28.57
2023-05-01T10:51:57.964Z,28.48
2023-05-01T10:54:32.861Z,28.63
2023-05-01T10:57:01.787Z,28.76
2023-05-01T11:00:01.204Z,29.26
2023-05-01T11:02:28.215Z,28.44
2023-05-01T11:04:56.387Z,28.20
2023-05-01T11:07:23.902Z,28.68
2023-05-01T11:09:55.255Z,28.37
2023-05-01T11:12:48.579Z,29.09
2023-05-01T11:15:27.164Z,30.53
2023-05-01T11:17:54.036Z,30.82
2023-05-01T11:20:26.773Z,31.29
2023-05-01T11:22:55.684Z,32.11
2023-05-01T11:25:24.454Z,32.32
2023-05-01T11:27:53.191Z,32.21
2023-05-01T11:30:20.053Z,31.69
2023-05-01T11:32:49.344Z,31.21
2023-05-01T11:35:26.271Z,31.40
2023-05-01T11:37:55.580Z,32.74
2023-05-01T11:40:22.392Z,34.46
2023-05-01T11:42:49.987Z,36.40
2023-05-01T11:45:17.215Z,36.98
2023-05-01T11:47:43.987Z,34.80
2023-05-01T11:50:11.333Z,34.85
2023-05-01T11:52:55.229Z,36.22
2023-05-01T11:55:31.158Z,35.53
2023-05-01T11:57:58.689Z,34.68
2023-05-01T12:00:29.687Z,34.92
2023-05-01T12:02:57.615Z,34.00
2023-05-01T12:05:26.437Z,33.20
2023-05-01T12:08:07.069Z,32.38
2023-05-01T12:10:35.674Z,31.18
2023-05-01T12:13:04.605Z,30.93
2023-05-01T12:15:34.664Z,29.87
2023-05-01T12:18:01.501Z,28.88
2023-05-01T12:20:57.795Z,27.14
2023-05-01T12:23:35.690Z,26.11
2023-05-01T12:26:03.389Z,25.75
2023-05-01T12:28:30.915Z,24.46
2023-05-01T12:31:04.906Z,24.18
2023-05-01T12:33:32.314Z,23.87
2023-05-01T12:36:14.299Z,24.24
2023-05-01T12:38:40.964Z,24.59
2023-05-01T12:41:09.364Z,24.82
2023-05-01T12:43:38.116Z,25.44
2023-05-01T12:46:05.788Z,25.54
2023-05-01T12:48:34.184Z,25.77
2023-05-01T12:51:01.291Z,26.61
2023-05-01T12:53:29.156Z,27.02
2023-05-01T12:55:57.741Z,26.75
2023-05-01T12:58:35.075Z,27.15
2023-05-01T13:01:04.129Z,26.74
2023-05-01T13:03:32.856Z,26.42
2023-05-01T13:06:03.020Z,26.50
2023-05-01T13:08:38.378Z,26.21
2023-05-01T13:11:11.060Z,26.20
2023-05-01T13:13:37.894Z,26.13
2023-05-01T13:16:12.403Z,26.16
2023-05-01T13:18:43.577Z,26.12
2023-05-01T13:21:12.092Z,25.71
2023-05-01T13:23:39.010Z,25.44
2023-05-01T13:26:10.621Z,25.20
2023-05-01T13:28:45.098Z,25.27
2023-05-01T13:31:14.027Z,25.42
2023-05-01T13:33:42.421Z,25.55
2023-05-01T13:36:25.203Z,25.81
2023-05-01T13:38:56.103Z,25.90
2023-05-01T13:41:25.686Z,26.01
2023-05-01T13:43:53.803Z,25.81
2023-05-01T13:46:22.972Z,25.45
2023-05-01T13:48:50.120Z,25.19
2023-05-01T13:51:27.183Z,25.42
2023-05-01T13:53:56.287Z,25.46
2023-05-01T13:56:23.571Z,25.29
2023-05-01T13:58:50.724Z,24.98
2023-05-01T14:01:21.372Z,25.15
2023-05-01T14:03:49.026Z,25.02
2023-05-01T14:06:20.761Z,24.63
2023-05-01T14:08:49.202Z,24.93
2023-05-01T14:11:16.863Z,24.77
2023-05-01T14:13:45.944Z,24.70
2023-05-01T14:16:26.797Z,24.73
2023-05-01T14:18:57.040Z,24.38
2023-05-01T14:21:27.838Z,24.59
2023-05-01T14:23:55.957Z,24.09
2023-05-01T14:26:24.160Z,24.18
2023-05-01T14:28:50.925Z,23.87
2023-05-01T14:31:29.451Z,23.66
2023-05-01T14:34:00.824Z,23.75
2023-05-01T14:36:31.692Z,24.07
2023-05-01T14:38:59.751Z,23.89
2023-05-01T14:41:27.009Z,23.71
2023-05-01T14:43:53.877Z,23.53
2023-05-01T14:46:30.945Z,23.48
2023-05-01T14:48:59.050Z,23.57
2023-05-01T14:51:25.926Z,23.60
2023-05-01T14:53:58.887Z,23.68
2023-05-01T14:56:28.195Z,23.72
2023-05-01T14:58:54.914Z,23.56
2023-05-01T15:01:23.843Z,23.61
2023-05-01T15:03:50.526Z,23.64
2023-05-01T15:06:19.636Z,23.44
2023-05-01T15:08:46.766Z,23.32
2023-05-01T15:11:14.274Z,23.20
2023-05-01T15:13:42.728Z,23.69
2023-05-01T15:16:10.904Z,23.11
2023-05-01T15:18:38.268Z,23.04
2023-05-01T15:21:05.236Z,22.80
2023-05-01T15:23:31.931Z,22.85
2023-05-01T15:25:59.216Z,22.83
2023-05-01T15:28:26.678Z,22.52
2023-05-01T15:30:53.534Z,22.27
2023-05-01T15:33:20.295Z,22.26
2023-05-01T15:35:48.485Z,22.34
2023-05-01T15:38:15.198Z,22.33
2023-05-01T15:40:45.968Z,22.69
2023-05-01T15:43:12.631Z,22.63
2023-05-01T15:45:43.075Z,22.16
2023-05-01T15:48:11.119Z,22.13
2023-05-01T15:50:37.973Z,22.35
2023-05-01T15:53:04.688Z,22.52
2023-05-01T15:55:31.651Z,22.26
2023-05-01T15:57:58.542Z,22.34
2023-05-01T16:00:25.769Z,22.72
2023-05-01T16:02:52.466Z,22.70
2023-05-01T16:05:21.426Z,22.65
2023-05-01T16:07:58.478Z,22.83
2023-05-01T16:10:25.490Z,22.65
2023-05-01T16:12:55.613Z,22.75
2023-05-01T16:15:22.891Z,22.40
2023-05-01T16:17:51.324Z,22.58
2023-05-01T16:20:18.291Z,22.66
2023-05-01T16:22:45.099Z,22.83
2023-05-01T16:25:12.631Z,22.93
2023-05-01T16:27:44.266Z,22.92
2023-05-01T16:30:14.387Z,22.93
2023-05-01T16:32:41.762Z,22.77
2023-05-01T16:35:17.334Z,22.77
2023-05-01T16:37:44.149Z,22.67
2023-05-01T16:40:16.361Z,22.65
2023-05-01T16:42:43.826Z,22.68
2023-05-01T16:45:10.644Z,22.65
2023-05-01T16:47:38.703Z,22.49
2023-05-01T16:50:08.411Z,22.48
2023-05-01T16:52:35.304Z,22.32
2023-05-01T16:55:02.056Z,22.54
2023-05-01T16:57:28.848Z,22.27
2023-05-01T16:59:55.546Z,22.40
2023-05-01T17:02:22.174Z,22.36
2023-05-01T17:04:48.856Z,22.19
2023-05-01T17:07:16.203Z,21.98
2023-05-01T17:09:42.823Z,21.92
2023-05-01T17:12:09.935Z,21.78
2023-05-01T17:14:36.730Z,21.71
2023-05-01T17:17:04.537Z,21.73
2023-05-01T17:19:33.968Z,21.67
2023-05-01T17:22:07.384Z,21.47
2023-05-01T17:24:35.182Z,21.59
2023-05-01T17:27:03.080Z,21.67
2023-05-01T17:29:29.735Z,21.49
2023-05-01T17:31:56.392Z,21.62
2023-05-01T17:34:23.095Z,21.40
2023-05-01T17:36:49.796Z,21.24
2023-05-01T17:39:16.661Z,21.28
2023-05-01T17:41:43.454Z,21.18
2023-05-01T17:44:10.163Z,21.01
2023-05-01T17:46:38.765Z,20.84
2023-05-01T17:49:06.130Z,20.85
2023-05-01T17:51:33.405Z,20.82
2023-05-01T17:54:00.982Z,20.82
2023-05-01T17:56:28.205Z,20.85
2023-05-01T17:58:55.115Z,20.79
2023-05-01T18:01:21.995Z,20.69
2023-05-01T18:03:49.254Z,20.58
2023-05-01T18:06:16.648Z,20.47
2023-05-01T18:08:43.415Z,20.44
2023-05-01T18:11:10.279Z,20.37
2023-05-01T18:13:42.347Z,20.11
2023-05-01T18:16:09.732Z,20.09
2023-05-01T18:18:36.455Z,20.08
2023-05-01T18:21:03.354Z,20.14
2023-05-01T18:23:30.009Z,20.04
2023-05-01T18:25:56.770Z,20.13
2023-05-01T18:28:23.429Z,19.99
2023-05-01T18:30:50.127Z,19.99
2023-05-01T18:33:17.948Z,20.03
2023-05-01T18:35:44.666Z,20.06
2023-05-01T18:38:12.154Z,20.04
2023-05-01T18:40:39.307Z,19.98
2023-05-01T18:43:06.009Z,19.94
2023-05-01T18:45:32.677Z,19.97
2023-05-01T18:48:00.811Z,19.92
2023-05-01T18:50:28.589Z,19.96
2023-05-01T18:52:55.225Z,19.99
2023-05-01T18:55:21.898Z,19.91
2023-05-01T18:57:48.682Z,19.88
2023-05-01T19:00:17.510Z,19.85
2023-05-01T19:02:51.119Z,19.92
2023-05-01T19:05:17.911Z,19.88
2023-05-01T19:07:45.065Z,19.85
2023-05-01T19:10:11.816Z,19.86
2023-05-01T19:12:39.317Z,19.82
2023-05-01T19:15:06.403Z,19.64
2023-05-01T19:17:33.914Z,19.64
2023-05-01T19:20:00.878Z,19.55
2023-05-01T19:22:27.820Z,19.51
2023-05-01T19:24:54.409Z,19.37
2023-05-01T19:27:21.328Z,19.11
2023-05-01T19:29:48.066Z,19.23
2023-05-01T19:32:14.924Z,19.16
2023-05-01T19:34:41.769Z,19.10
2023-05-01T19:37:08.488Z,18.92
2023-05-01T19:39:35.483Z,18.92
2023-05-01T19:42:03.266Z,18.90
2023-05-01T19:44:29.903Z,18.70
2023-05-01T19:46:56.644Z,18.62
2023-05-01T19:49:24.885Z,18.54
2023-05-01T19:51:53.374Z,18.43
2023-05-01T19:54:22.177Z,18.48
2023-05-01T19:56:51.562Z,18.46
2023-05-01T19:59:19.295Z,18.57
2023-05-01T20:01:46.417Z,18.66
2023-05-01T20:04:13.266Z,18.55
2023-05-01T20:06:40.044Z,18.54
2023-05-01T20:09:08.450Z,18.51
2023-05-01T20:11:35.213Z,18.56
2023-05-01T20:14:03.522Z,18.48
2023-05-01T20:16:30.939Z,18.38
2023-05-01T20:18:57.827Z,18.29
2023-05-01T20:21:24.535Z,18.23
2023-05-01T20:23:51.397Z,18.17
2023-05-01T20:26:18.897Z,18.02
2023-05-01T20:28:48.813Z,17.89
2023-05-01T20:31:15.644Z,17.79
2023-05-01T20:33:42.339Z,17.71
2023-05-01T20:36:09.000Z,17.71
2023-05-01T20:38:47.437Z,17.67
2023-05-01T20:41:14.695Z,17.62
2023-05-01T20:43:41.357Z,17.59
2023-05-01T20:46:08.175Z,17.58
2023-05-01T20:48:34.954Z,17.58
2023-05-01T20:51:01.702Z,17.58
2023-05-01T20:53:28.348Z,17.55
2023-05-01T20:55:55.034Z,17.43
2023-05-01T20:58:21.674Z,17.38
2023-05-01T21:00:48.309Z,17.30
2023-05-01T21:03:16.160Z,17.30
2023-05-01T21:05:42.926Z,17.14
2023-05-01T21:08:09.628Z,17.05
2023-05-01T21:10:36.817Z,17.08
2023-05-01T21:13:03.861Z,17.11
2023-05-01T21:15:31.953Z,17.15
2023-05-01T21:17:58.714Z,17.07
2023-05-01T21:20:31.524Z,17.01
2023-05-01T21:23:02.529Z,16.89
2023-05-01T21:25:31.515Z,16.79
2023-05-01T21:28:01.868Z,16.73
2023-05-01T21:30:37.562Z,16.71
2023-05-01T21:33:06.402Z,16.67
2023-05-01T21:35:33.466Z,16.67
2023-05-01T21:38:00.863Z,16.70
2023-05-01T21:40:27.589Z,16.64
2023-05-01T21:42:54.728Z,16.63
2023-05-01T21:45:21.906Z,16.50
2023-05-01T21:47:53.240Z,16.44
2023-05-01T21:50:21.327Z,16.41
2023-05-01T21:52:49.552Z,16.34
2023-05-01T21:55:18.777Z,16.30
2023-05-01T21:57:45.800Z,16.35
2023-05-01T22:00:13.146Z,16.32
2023-05-01T22:02:42.050Z,16.32
2023-05-01T22:05:09.949Z,16.21
2023-05-01T22:07:40.829Z,16.19
2023-05-01T22:10:13.589Z,16.10
2023-05-01T22:12:41.583Z,16.25
2023-05-01T22:15:10.251Z,16.33
2023-05-01T22:17:38.395Z,16.39
2023-05-01T22:20:07.049Z,16.33
2023-05-01T22:22:35.095Z,16.33
2023-05-01T22:25:02.416Z,16.19
2023-05-01T22:27:29.191Z,16.13
2023-05-01T22:29:55.936Z,16.03
2023-05-01T22:32:22.750Z,15.87
2023-05-01T22:34:50.615Z,15.68
2023-05-01T22:37:18.839Z,15.62
2023-05-01T22:39:45.528Z,15.75
2023-05-01T22:42:12.194Z,15.74
2023-05-01T22:44:39.221Z,15.82
2023-05-01T22:47:06.355Z,15.72
2023-05-01T22:49:33.311Z,15.67
2023-05-01T22:52:00.120Z,15.68
2023-05-01T22:54:26.856Z,15.72
2023-05-01T22:56:53.569Z,15.74
2023-05-01T22:59:21.436Z,15.82
2023-05-01T23:01:48.459Z,15.88
2023-05-01T23:04:15.416Z,15.86
2023-05-01T23:06:43.164Z,15.65
2023-05-01T23:09:09.967Z,15.52
2023-05-01T23:11:36.676Z,15.31
2023-05-01T23:14:03.286Z,15.17
2023-05-01T23:16:36.499Z,15.14
2023-05-01T23:19:03.513Z,15.04
2023-05-01T23:21:30.908Z,15.03
2023-05-01T23:23:57.557Z,14.99
2023-05-01T23:26:29.021Z,14.95
2023-05-01T23:28:55.745Z,15.01
2023-05-01T23:31:26.909Z,15.04
2023-05-01T23:33:54.845Z,15.14
2023-05-01T23:36:22.866Z,15.24
2023-05-01T23:38:49.596Z,15.32
2023-05-01T23:41:16.534Z,15.36
2023-05-01T23:43:46.584Z,15.30
2023-05-01T23:46:14.045Z,15.29
2023-05-01T23:48:41.601Z,15.23
2023-05-01T23:51:08.528Z,15.10
2023-05-01T23:53:35.210Z,14.99
2023-05-01T23:56:02.205Z,14.99
2023-05-01T23:58:28.932Z,15.00
